Time;durP1;ratioP1;P1;durP2;ratioP2;P2;SDS_P1;SDS_P2;PMS_P1;PMS_P2;Temp;Humidity;BMP_temperature;BMP_pressure;BME280_temperature;BME280_humidity;BME280_pressure;Samples;Min_cycle;Max_cycle;Signal;HPM_P1;HPM_P2
2022/01/19 05:02:56;;;;;;;27.38;12.25;;;-1.90;99.90;;;;;;5159456;22;94544;-74
2022/01/19 05:05:47;;;;;;;24.27;12.52;;;-1.90;99.90;;;;;;5036219;27;94385;-76
2022/01/19 05:08:18;;;;;;;20.70;11.55;;;-1.80;99.90;;;;;;5035850;27;96234;-76
2022/01/19 05:13:35;;;;;;;28.17;14.15;;;-2.00;99.90;;;;;;5016840;28;94835;-76
2022/01/19 05:16:01;;;;;;;22.55;12.57;;;-1.90;99.90;;;;;;5019271;28;93892;-77
2022/01/19 05:18:27;;;;;;;22.85;11.68;;;-2.00;99.90;;;;;;5017793;28;96743;-77
2022/01/19 05:20:52;;;;;;;20.90;11.50;;;-2.10;99.90;;;;;;5018062;28;96711;-77
2022/01/19 05:23:18;;;;;;;21.80;11.75;;;-2.10;99.90;;;;;;5019614;28;95626;-77
2022/01/19 05:25:47;;;;;;;24.48;12.35;;;-2.20;99.90;;;;;;5017978;28;94491;-78
2022/01/19 05:28:13;;;;;;;23.42;12.48;;;-2.20;99.90;;;;;;5019391;28;96583;-78
2022/01/19 05:30:39;;;;;;;22.88;12.23;;;-2.20;99.90;;;;;;5016212;28;97174;-77
2022/01/19 05:33:05;;;;;;;24.50;13.18;;;-2.20;99.90;;;;;;5016904;28;94469;-77
2022/01/19 05:35:30;;;;;;;25.23;12.40;;;-2.20;99.90;;;;;;5017968;28;94986;-77
2022/01/19 05:37:56;;;;;;;24.02;11.77;;;-2.30;99.90;;;;;;5015054;28;97138;-76
2022/01/19 05:40:22;;;;;;;26.70;12.75;;;-2.40;99.90;;;;;;5015103;28;96509;-77
2022/01/19 05:42:49;;;;;;;26.38;13.18;;;-2.50;99.90;;;;;;5016310;28;94520;-76
2022/01/19 05:45:16;;;;;;;28.25;13.43;;;-2.40;99.90;;;;;;5016281;28;94544;-76
2022/01/19 05:47:41;;;;;;;22.15;13.25;;;-2.30;99.90;;;;;;5015382;28;96392;-76
2022/01/19 05:50:07;;;;;;;26.88;13.50;;;-2.10;99.90;;;;;;5015814;28;94625;-76
2022/01/19 05:52:33;;;;;;;24.50;12.55;;;-2.20;99.90;;;;;;5015390;28;94348;-76
2022/01/19 05:54:58;;;;;;;26.55;12.93;;;-2.20;99.90;;;;;;5015754;28;94495;-76
2022/01/19 05:57:24;;;;;;;24.35;13.10;;;-2.30;99.90;;;;;;5015722;28;95196;-77
2022/01/19 05:59:49;;;;;;;24.33;12.95;;;-2.20;99.90;;;;;;5015979;28;94389;-76
2022/01/19 06:02:16;;;;;;;25.00;12.90;;;-2.30;99.90;;;;;;5016111;28;94671;-76
2022/01/19 06:04:44;;;;;;;24.85;12.35;;;-2.40;99.90;;;;;;5016998;28;93746;-77
2022/01/19 06:07:12;;;;;;;26.42;12.75;;;-2.30;99.90;;;;;;5016078;28;95263;-77
2022/01/19 06:09:50;;;;;;;24.67;12.50;;;-2.30;99.90;;;;;;5015918;28;94787;-75
2022/01/19 06:12:16;;;;;;;25.30;14.07;;;-2.40;99.90;;;;;;5015156;28;95399;-77
2022/01/19 06:14:43;;;;;;;32.95;14.05;;;-2.50;99.90;;;;;;5015722;28;94563;-76
2022/01/19 06:17:10;;;;;;;31.40;13.77;;;-2.30;99.90;;;;;;5013965;28;96802;-76
2022/01/19 06:19:36;;;;;;;24.48;12.65;;;-2.30;99.90;;;;;;5014935;28;94483;-76
2022/01/19 06:22:02;;;;;;;24.60;12.73;;;-2.30;99.90;;;;;;5013651;28;94511;-79
2022/01/19 06:24:28;;;;;;;27.17;13.40;;;-2.10;99.90;;;;;;5015527;28;94741;-76
2022/01/19 06:26:54;;;;;;;23.80;12.30;;;-2.20;99.90;;;;;;5013295;28;97089;-76
2022/01/19 06:29:20;;;;;;;25.98;13.32;;;-2.30;99.90;;;;;;5015591;28;95506;-76
2022/01/19 06:31:45;;;;;;;29.92;13.98;;;-2.40;99.90;;;;;;5005905;28;95960;-76
2022/01/19 06:34:11;;;;;;;23.83;12.40;;;-2.50;99.90;;;;;;5011820;28;94602;-76
2022/01/19 06:36:37;;;;;;;27.55;14.38;;;-2.50;99.90;;;;;;5012911;28;98571;-76
2022/01/19 06:39:04;;;;;;;30.23;13.48;;;-2.60;99.90;;;;;;5013044;28;97128;-76
2022/01/19 06:41:29;;;;;;;32.65;15.02;;;-2.60;99.90;;;;;;5015312;28;94677;-78
2022/01/19 06:43:55;;;;;;;27.15;14.57;;;-2.20;99.90;;;;;;5014825;28;94502;-76
2022/01/19 06:46:20;;;;;;;30.52;15.00;;;-2.10;99.90;;;;;;5014823;28;95154;-76
2022/01/19 06:48:46;;;;;;;30.00;14.77;;;-2.20;99.90;;;;;;5012082;28;98018;-77
2022/01/19 06:51:11;;;;;;;29.38;13.63;;;-2.20;99.90;;;;;;5003424;28;94521;-76
2022/01/19 06:53:37;;;;;;;28.48;13.55;;;-2.30;99.90;;;;;;5014802;28;93746;-77
2022/01/19 06:56:03;;;;;;;29.73;12.63;;;-2.40;99.90;;;;;;5013089;28;98273;-77
2022/01/19 06:58:28;;;;;;;29.35;14.20;;;-2.40;99.90;;;;;;5013246;28;97672;-77
2022/01/19 07:00:55;;;;;;;30.92;14.23;;;-2.40;99.90;;;;;;5013561;28;95506;-77
2022/01/19 07:03:21;;;;;;;28.45;13.90;;;-2.30;99.90;;;;;;5012321;28;94788;-76
2022/01/19 07:05:47;;;;;;;30.52;13.38;;;-2.20;99.90;;;;;;5014903;28;95550;-76
2022/01/19 07:08:13;;;;;;;34.92;15.30;;;-2.00;99.90;;;;;;5015722;28;94479;-76
2022/01/19 07:10:39;;;;;;;30.85;14.43;;;-1.70;99.90;;;;;;5013292;28;95086;-76
2022/01/19 07:13:06;;;;;;;32.35;15.18;;;-1.50;99.90;;;;;;5013576;28;94614;-77
2022/01/19 07:15:32;;;;;;;31.50;13.77;;;-1.30;99.90;;;;;;5015124;28;95353;-78
2022/01/19 07:17:58;;;;;;;28.58;15.00;;;-1.20;99.90;;;;;;5015482;28;94069;-76
2022/01/19 07:20:23;;;;;;;32.97;14.88;;;-1.20;99.90;;;;;;5015102;28;94547;-77
2022/01/19 07:22:49;;;;;;;32.40;15.95;;;-1.20;99.90;;;;;;5013487;28;94599;-76
2022/01/19 07:25:16;;;;;;;34.70;16.23;;;-1.20;99.90;;;;;;5013881;28;97473;-77
2022/01/19 07:27:42;;;;;;;34.15;17.20;;;-1.30;99.90;;;;;;5013818;28;95750;-77
2022/01/19 07:30:09;;;;;;;34.40;16.88;;;-1.40;99.90;;;;;;5014934;28;94520;-78
2022/01/19 07:32:35;;;;;;;33.85;17.23;;;-1.30;99.90;;;;;;5014661;28;94567;-77
2022/01/19 07:35:06;;;;;;;35.47;18.67;;;-1.10;99.90;;;;;;5014159;28;95097;-77
2022/01/19 07:37:32;;;;;;;35.78;18.58;;;-1.00;99.90;;;;;;5013960;28;98016;-76
2022/01/19 07:39:58;;;;;;;34.65;16.88;;;-0.90;99.90;;;;;;5011826;28;94945;-77
2022/01/19 07:42:24;;;;;;;34.17;15.75;;;-0.90;99.90;;;;;;5014797;28;93947;-77
2022/01/19 07:44:50;;;;;;;31.90;15.05;;;-1.00;99.90;;;;;;5017687;28;95242;-77
2022/01/19 07:47:16;;;;;;;33.90;15.02;;;-1.10;99.90;;;;;;5018117;28;94472;-77
2022/01/19 07:49:42;;;;;;;33.20;15.57;;;-1.10;99.90;;;;;;5017533;28;95514;-78
2022/01/19 07:52:07;;;;;;;33.67;16.10;;;-1.20;99.90;;;;;;5018699;28;94654;-77
2022/01/19 07:54:33;;;;;;;38.67;15.63;;;-1.10;99.90;;;;;;5018882;28;94543;-77
2022/01/19 07:56:58;;;;;;;36.38;16.15;;;-1.00;99.90;;;;;;5018627;28;94328;-77
2022/01/19 07:59:24;;;;;;;29.77;15.00;;;-1.00;99.90;;;;;;5039329;27;93963;-78
2022/01/19 08:01:50;;;;;;;32.75;15.68;;;-1.00;99.90;;;;;;5041696;28;94126;-78
2022/01/19 08:04:16;;;;;;;33.25;16.65;;;-0.90;99.90;;;;;;5017026;28;96783;-77
2022/01/19 08:06:41;;;;;;;36.40;17.08;;;-0.80;99.90;;;;;;5018486;28;94884;-78
2022/01/19 08:09:07;;;;;;;38.55;17.08;;;-0.60;99.90;;;;;;5018089;28;94367;-77
2022/01/19 08:11:33;;;;;;;35.65;17.95;;;-0.50;99.90;;;;;;5017231;28;94358;-75
2022/01/19 08:13:59;;;;;;;37.47;17.70;;;-0.50;99.90;;;;;;5017930;28;95403;-76
2022/01/19 08:16:24;;;;;;;38.58;18.75;;;-0.50;99.90;;;;;;5017348;28;97092;-76
2022/01/19 08:18:50;;;;;;;37.00;19.08;;;-0.50;99.90;;;;;;5015595;28;94800;-76
2022/01/19 08:21:16;;;;;;;36.03;17.02;;;-0.40;99.90;;;;;;5017703;28;94463;-77
2022/01/19 08:23:41;;;;;;;42.50;19.42;;;-0.30;99.90;;;;;;5016137;28;97203;-76
2022/01/19 08:26:07;;;;;;;43.15;19.38;;;-0.30;99.90;;;;;;5017055;28;96598;-76
2022/01/19 08:28:33;;;;;;;40.90;18.92;;;-0.30;99.90;;;;;;5017746;28;94363;-77
2022/01/19 08:30:59;;;;;;;38.03;18.45;;;-0.30;99.90;;;;;;5018207;28;93765;-76
2022/01/19 08:33:24;;;;;;;35.15;18.50;;;-0.30;99.90;;;;;;5016819;28;95210;-76
2022/01/19 08:35:51;;;;;;;35.47;17.17;;;-0.30;99.90;;;;;;5015553;28;96697;-75
2022/01/19 08:38:18;;;;;;;32.53;17.48;;;-0.30;99.90;;;;;;5016599;28;95514;-77
2022/01/19 08:40:44;;;;;;;37.63;16.77;;;-0.20;99.90;;;;;;5017163;28;94536;-77
2022/01/19 08:43:09;;;;;;;32.65;17.40;;;-0.20;99.90;;;;;;5017045;28;94611;-76
2022/01/19 08:45:36;;;;;;;36.60;17.05;;;-0.10;99.90;;;;;;5015706;28;97735;-77
2022/01/19 08:48:02;;;;;;;34.05;16.85;;;0.00;99.90;;;;;;5017594;28;94433;-75
2022/01/19 08:50:29;;;;;;;36.03;17.38;;;0.10;99.90;;;;;;5014839;28;94952;-77
2022/01/19 08:52:54;;;;;;;38.30;17.40;;;0.10;99.90;;;;;;5010637;28;97180;-76
2022/01/19 08:55:20;;;;;;;35.35;18.38;;;0.10;99.90;;;;;;5014107;28;98021;-76
2022/01/19 08:57:46;;;;;;;31.45;17.30;;;0.20;99.90;;;;;;5015619;28;94496;-74
2022/01/19 09:00:15;;;;;;;32.40;17.23;;;0.30;99.90;;;;;;5016415;28;94396;-80
2022/01/19 09:02:40;;;;;;;29.27;17.13;;;0.30;99.90;;;;;;5012810;28;99836;-75
2022/01/19 09:05:07;;;;;;;30.85;17.65;;;0.30;99.90;;;;;;5015709;28;96233;-74
2022/01/19 09:07:33;;;;;;;31.27;17.00;;;0.50;99.90;;;;;;5015570;28;94851;-76
2022/01/19 09:09:59;;;;;;;26.40;16.17;;;0.50;99.90;;;;;;5016246;28;94552;-75
2022/01/19 09:12:25;;;;;;;31.10;16.48;;;0.50;99.90;;;;;;5005112;28;94254;-77
2022/01/19 09:14:51;;;;;;;28.67;16.63;;;0.60;99.90;;;;;;5006711;28;95527;-77
2022/01/19 09:17:17;;;;;;;29.55;16.90;;;0.60;99.90;;;;;;5008845;28;94329;-80
2022/01/19 09:19:42;;;;;;;24.42;15.20;;;0.60;99.90;;;;;;5013583;28;93806;-80
2022/01/19 09:22:10;;;;;;;27.30;15.75;;;0.60;99.90;;;;;;5011901;28;95664;-85
2022/01/19 09:24:38;;;;;;;27.80;15.50;;;0.60;99.90;;;;;;5007619;28;97936;-77
2022/01/19 09:27:05;;;;;;;28.65;15.52;;;0.70;99.90;;;;;;5005583;28;95410;-81
2022/01/19 09:29:31;;;;;;;28.88;15.95;;;0.70;99.90;;;;;;5018219;28;94938;-81
2022/01/19 09:31:59;;;;;;;29.95;15.20;;;0.70;99.90;;;;;;5008805;28;94596;-77
2022/01/19 09:34:24;;;;;;;27.77;16.00;;;0.80;99.90;;;;;;5014859;28;94619;-78
2022/01/19 09:36:50;;;;;;;29.90;15.07;;;0.80;99.90;;;;;;5022910;28;94519;-78
2022/01/19 09:39:19;;;;;;;28.77;15.05;;;0.80;99.90;;;;;;5021858;28;94530;-77
2022/01/19 09:41:46;;;;;;;24.80;14.52;;;0.90;99.90;;;;;;5016134;28;98132;-77
2022/01/19 09:44:12;;;;;;;29.15;14.38;;;1.10;99.90;;;;;;5009929;28;97801;-77
2022/01/19 09:46:38;;;;;;;23.17;13.20;;;1.20;99.90;;;;;;5010968;28;94603;-78
2022/01/19 09:49:08;;;;;;;25.38;13.40;;;1.30;99.90;;;;;;5015064;28;94525;-77
2022/01/19 09:51:35;;;;;;;22.92;13.35;;;1.40;99.90;;;;;;5014937;28;96698;-77
2022/01/19 09:54:01;;;;;;;24.13;13.85;;;1.50;99.90;;;;;;5015435;28;96425;-77
2022/01/19 09:56:26;;;;;;;23.45;13.57;;;1.60;99.90;;;;;;5014518;28;94450;-77
2022/01/19 09:58:52;;;;;;;25.52;13.38;;;1.80;99.90;;;;;;5016469;28;94477;-78
2022/01/19 10:01:19;;;;;;;22.55;13.35;;;1.90;99.90;;;;;;5014063;28;97888;-78
2022/01/19 10:03:46;;;;;;;22.95;12.40;;;1.90;99.90;;;;;;5007721;28;94753;-78
2022/01/19 10:06:14;;;;;;;20.48;12.25;;;1.90;99.90;;;;;;5006048;28;94492;-78
2022/01/19 10:08:42;;;;;;;22.65;12.82;;;2.00;99.90;;;;;;5002754;28;93867;-78
2022/01/19 10:16:59;;;;;;;21.40;12.02;;;2.10;99.90;;;;;;5009557;28;95585;-78
2022/01/19 10:19:39;;;;;;;23.05;12.80;;;2.20;99.90;;;;;;5003351;28;94613;-78
2022/01/19 10:22:05;;;;;;;19.80;11.68;;;2.20;99.90;;;;;;5003983;28;98167;-78
2022/01/19 10:24:57;;;;;;;21.52;11.38;;;2.20;99.90;;;;;;5007637;28;95245;-78
2022/01/19 10:27:42;;;;;;;22.45;12.18;;;2.30;99.90;;;;;;5001443;28;94643;-77
2022/01/19 10:30:08;;;;;;;19.33;11.05;;;2.60;99.90;;;;;;4996148;28;94521;-78
2022/01/19 10:32:46;;;;;;;17.02;11.68;;;2.60;99.90;;;;;;4995487;28;94533;-79
2022/01/19 10:35:28;;;;;;;20.50;11.80;;;2.70;99.90;;;;;;4995877;28;97740;-77
2022/01/19 10:38:15;;;;;;;21.92;12.07;;;2.70;99.90;;;;;;5015697;28;94447;-78
2022/01/19 10:41:01;;;;;;;20.70;13.32;;;2.70;99.90;;;;;;5015263;28;94405;-79
2022/01/19 10:43:27;;;;;;;20.50;12.93;;;2.70;99.90;;;;;;5012875;28;96359;-79
2022/01/19 10:45:54;;;;;;;21.77;12.93;;;2.80;99.90;;;;;;5012321;28;99464;-77
2022/01/19 10:48:31;;;;;;;21.38;12.50;;;2.90;99.90;;;;;;5015066;28;94750;-76
2022/01/19 10:51:06;;;;;;;18.45;12.45;;;2.90;99.90;;;;;;5014700;28;94467;-77
2022/01/19 10:53:32;;;;;;;20.33;12.38;;;3.00;99.90;;;;;;5014442;28;95573;-76
2022/01/19 10:55:58;;;;;;;20.65;12.65;;;3.10;99.90;;;;;;5015468;28;94918;-78
2022/01/19 10:58:23;;;;;;;23.63;13.18;;;3.10;99.90;;;;;;5014461;28;94446;-78
2022/01/19 11:00:51;;;;;;;20.70;12.43;;;3.30;99.90;;;;;;5014151;28;93730;-77
2022/01/19 11:03:28;;;;;;;20.63;12.82;;;3.30;99.90;;;;;;5014911;28;95736;-76
2022/01/19 11:05:56;;;;;;;21.08;12.75;;;3.40;99.90;;;;;;5014113;28;94875;-76
2022/01/19 11:08:23;;;;;;;20.02;13.07;;;3.50;99.90;;;;;;5014269;28;95879;-77
2022/01/19 11:10:52;;;;;;;23.52;13.38;;;3.50;99.90;;;;;;5014898;28;94639;-77
2022/01/19 11:13:39;;;;;;;22.98;13.10;;;3.60;99.90;;;;;;5035585;28;94856;-77
2022/01/19 11:16:06;;;;;;;21.23;13.43;;;3.70;99.90;;;;;;5026074;28;96902;-79
2022/01/19 11:18:36;;;;;;;22.73;12.93;;;3.80;99.90;;;;;;5014202;28;94816;-76
2022/01/19 11:21:06;;;;;;;20.95;13.35;;;3.90;99.90;;;;;;5002501;28;94429;-77
2022/01/19 11:24:13;;;;;;;21.98;12.57;;;4.00;99.90;;;;;;4995602;28;95705;-82
2022/01/19 11:26:39;;;;;;;23.77;13.27;;;4.10;99.90;;;;;;4994751;28;98194;-77
2022/01/19 11:29:21;;;;;;;22.27;12.38;;;4.10;99.90;;;;;;5012505;28;94717;-79
2022/01/19 11:31:48;;;;;;;22.63;11.88;;;4.20;99.90;;;;;;5008636;28;94715;-77
2022/01/19 11:34:14;;;;;;;17.50;11.98;;;4.20;99.90;;;;;;5014017;28;95585;-78
2022/01/19 11:36:42;;;;;;;20.65;13.15;;;4.30;99.90;;;;;;5014875;28;94710;-76
2022/01/19 11:39:12;;;;;;;21.73;11.60;;;4.40;99.90;;;;;;5015156;28;94303;-75
2022/01/19 11:41:56;;;;;;;18.48;11.50;;;4.40;99.90;;;;;;5014356;28;94540;-76
2022/01/19 11:44:27;;;;;;;19.42;12.10;;;4.40;99.90;;;;;;5014928;28;95674;-76
2022/01/19 11:46:55;;;;;;;23.50;13.85;;;4.50;99.90;;;;;;5014056;28;95353;-76
2022/01/19 11:49:50;;;;;;;25.75;14.05;;;4.60;99.90;;;;;;5004839;28;94471;-77
2022/01/19 11:52:19;;;;;;;26.27;14.63;;;4.70;99.90;;;;;;5014252;28;93659;-77
2022/01/19 11:54:45;;;;;;;22.25;14.00;;;4.80;99.90;;;;;;5012545;28;99043;-77
2022/01/19 11:57:27;;;;;;;18.17;11.68;;;5.00;99.90;;;;;;5014502;28;94906;-80
2022/01/19 11:59:53;;;;;;;17.70;11.05;;;5.20;99.90;;;;;;5014255;28;96078;-76
2022/01/19 12:02:21;;;;;;;15.98;10.77;;;5.30;99.90;;;;;;5014344;28;94365;-77
2022/01/19 12:04:54;;;;;;;18.73;10.40;;;5.30;99.90;;;;;;5014204;28;95695;-77
2022/01/19 12:07:45;;;;;;;18.85;10.50;;;5.50;99.90;;;;;;5013452;28;94366;-77
2022/01/19 12:10:19;;;;;;;18.27;10.70;;;5.60;99.90;;;;;;5013801;28;94420;-75
2022/01/19 12:13:07;;;;;;;16.92;10.00;;;5.60;99.90;;;;;;5014139;28;94484;-79
2022/01/19 12:15:54;;;;;;;15.32;9.30;;;5.70;99.90;;;;;;5013774;28;95124;-76
2022/01/19 12:18:38;;;;;;;16.27;9.25;;;6.10;99.90;;;;;;5015144;28;94134;-77
2022/01/19 12:21:05;;;;;;;14.00;8.60;;;6.60;99.90;;;;;;5014413;28;95146;-77
2022/01/19 12:23:34;;;;;;;15.35;9.32;;;6.90;99.90;;;;;;5014800;28;94394;-77
2022/01/19 12:26:01;;;;;;;13.70;9.07;;;6.90;99.90;;;;;;5013578;28;96166;-77
2022/01/19 12:28:47;;;;;;;13.25;8.25;;;6.90;99.90;;;;;;5014344;28;95740;-76
2022/01/19 12:31:25;;;;;;;13.77;8.50;;;7.00;99.90;;;;;;5018240;28;94875;-77
2022/01/19 12:34:02;;;;;;;15.45;8.95;;;6.90;99.90;;;;;;5018622;28;94705;-77
2022/01/19 12:36:51;;;;;;;17.55;8.82;;;6.70;99.90;;;;;;5019708;28;98193;-77
2022/01/19 12:39:25;;;;;;;12.55;8.52;;;6.70;99.90;;;;;;5018134;28;94460;-77
2022/01/19 12:42:14;;;;;;;14.40;8.98;;;6.40;99.90;;;;;;5018793;28;94792;-77
2022/01/19 12:44:55;;;;;;;15.57;9.52;;;6.30;99.90;;;;;;5019063;28;93746;-77
2022/01/19 12:47:41;;;;;;;16.15;9.70;;;6.20;99.90;;;;;;5016053;28;98379;-77
2022/01/19 12:50:07;;;;;;;15.85;10.15;;;6.10;99.90;;;;;;5018105;28;94462;-76
2022/01/19 12:52:34;;;;;;;15.18;9.93;;;6.00;99.90;;;;;;5016513;28;95502;-77
2022/01/19 12:55:10;;;;;;;16.20;10.30;;;6.10;99.90;;;;;;5018317;28;94535;-76
2022/01/19 12:57:35;;;;;;;16.55;9.80;;;6.00;99.90;;;;;;5017118;28;94378;-77
2022/01/19 13:00:03;;;;;;;16.83;10.18;;;5.90;99.90;;;;;;5017718;28;94363;-77
2022/01/19 13:02:29;;;;;;;19.30;10.68;;;5.90;99.90;;;;;;5017940;28;94588;-77
2022/01/19 13:05:05;;;;;;;17.65;10.55;;;5.80;99.90;;;;;;5017733;28;94436;-77
2022/01/19 13:07:32;;;;;;;16.70;9.90;;;5.70;99.90;;;;;;5017807;28;94446;-77
2022/01/19 13:12:48;;;;;;;16.50;10.68;;;5.60;99.90;;;;;;5017697;28;94521;-78
2022/01/19 13:15:14;;;;;;;18.17;11.05;;;5.60;99.90;;;;;;5018913;28;94549;-77
2022/01/19 13:17:46;;;;;;;16.75;10.60;;;5.70;99.90;;;;;;5015717;28;97512;-76
2022/01/19 13:20:15;;;;;;;16.98;10.82;;;5.80;99.90;;;;;;5016239;28;98332;-76
2022/01/19 13:22:46;;;;;;;17.25;11.18;;;5.80;99.90;;;;;;5015483;28;94511;-77
2022/01/19 13:25:33;;;;;;;20.15;11.40;;;5.70;99.90;;;;;;5016389;28;94352;-77
2022/01/19 13:28:01;;;;;;;21.95;11.50;;;5.60;99.90;;;;;;5016047;28;95434;-78
2022/01/19 13:30:29;;;;;;;17.92;10.77;;;5.60;99.90;;;;;;5014351;28;96480;-76
2022/01/19 13:32:56;;;;;;;17.48;11.13;;;5.50;99.90;;;;;;5016780;28;94950;-77
2022/01/19 13:35:24;;;;;;;21.30;12.05;;;5.40;99.90;;;;;;5015558;28;93800;-78
2022/01/19 13:37:58;;;;;;;18.33;11.63;;;5.40;99.90;;;;;;5015461;28;98271;-77
2022/01/19 13:40:26;;;;;;;19.02;11.20;;;5.40;99.90;;;;;;5015682;28;94514;-77
2022/01/19 13:43:01;;;;;;;19.08;11.55;;;5.40;99.90;;;;;;5015986;28;95425;-78
2022/01/19 13:48:27;;;;;;;22.48;13.18;;;5.30;99.90;;;;;;5014577;28;95761;-78
2022/01/19 13:51:03;;;;;;;22.42;12.30;;;5.20;99.90;;;;;;5016468;28;94432;-78
2022/01/19 13:53:35;;;;;;;20.80;12.40;;;5.10;99.90;;;;;;5016005;28;94860;-76
2022/01/19 13:56:04;;;;;;;19.98;11.98;;;5.10;99.90;;;;;;5016914;28;94314;-77
2022/01/19 13:58:36;;;;;;;19.85;12.02;;;5.20;99.90;;;;;;5016615;28;95576;-77
2022/01/19 14:01:09;;;;;;;24.23;12.40;;;5.10;99.90;;;;;;5016799;28;94880;-78
2022/01/19 14:04:08;;;;;;;20.55;11.73;;;5.00;99.90;;;;;;5018149;28;94482;-78
2022/01/19 14:06:43;;;;;;;20.30;11.75;;;5.00;99.90;;;;;;4990962;28;94717;-77
2022/01/19 14:09:18;;;;;;;17.63;11.48;;;5.00;99.90;;;;;;5012194;28;98546;-78
2022/01/19 14:12:01;;;;;;;19.70;12.07;;;4.90;99.90;;;;;;5018495;28;95759;-77
2022/01/19 14:14:35;;;;;;;20.58;12.75;;;4.80;99.90;;;;;;5018171;28;94875;-80
2022/01/19 14:17:02;;;;;;;22.05;12.10;;;4.80;99.90;;;;;;5018566;28;94342;-78
2022/01/19 14:19:30;;;;;;;22.08;12.52;;;4.80;99.90;;;;;;5017960;28;95545;-78
2022/01/19 14:22:08;;;;;;;21.20;11.77;;;4.70;99.90;;;;;;5018487;28;95336;-79
2022/01/19 14:25:12;;;;;;;18.95;11.30;;;4.60;99.90;;;;;;5034059;28;94060;-80
2022/01/19 14:27:56;;;;;;;19.95;11.77;;;4.60;99.90;;;;;;5023291;28;93805;-81
2022/01/19 14:30:30;;;;;;;20.50;11.82;;;4.60;99.90;;;;;;5016380;28;94534;-78
2022/01/19 14:33:11;;;;;;;21.65;13.07;;;4.50;99.90;;;;;;5016117;28;95026;-79
2022/01/19 14:35:37;;;;;;;20.98;12.18;;;4.60;99.90;;;;;;5016391;28;95351;-80
2022/01/19 14:38:26;;;;;;;22.60;12.50;;;4.50;99.90;;;;;;5017618;28;94401;-80
2022/01/19 14:41:10;;;;;;;20.25;12.48;;;4.50;99.90;;;;;;5016657;28;94456;-82
2022/01/19 14:43:47;;;;;;;18.83;12.07;;;4.40;99.90;;;;;;5016546;28;94385;-80
2022/01/19 14:46:24;;;;;;;19.05;12.57;;;4.30;99.90;;;;;;5016577;28;94594;-79
2022/01/19 14:48:50;;;;;;;23.77;12.95;;;4.30;99.90;;;;;;5015731;28;94344;-77
2022/01/19 14:51:26;;;;;;;20.95;11.93;;;4.30;99.90;;;;;;5013221;28;97279;-78
2022/01/19 14:53:54;;;;;;;19.85;12.18;;;4.40;99.90;;;;;;5013186;28;96786;-79
2022/01/19 14:56:20;;;;;;;19.65;11.32;;;4.40;99.90;;;;;;5014268;28;94683;-79
2022/01/19 14:58:46;;;;;;;19.48;11.50;;;4.40;99.90;;;;;;5013904;28;94614;-77
2022/01/19 15:01:12;;;;;;;18.08;11.57;;;4.50;99.90;;;;;;5013993;28;96198;-78
2022/01/19 15:03:39;;;;;;;18.23;11.70;;;4.50;99.90;;;;;;5015116;28;95778;-79
2022/01/19 15:06:05;;;;;;;20.23;12.10;;;4.50;99.90;;;;;;5015686;28;94448;-79
2022/01/19 15:08:31;;;;;;;20.80;12.15;;;4.50;99.90;;;;;;5016647;28;94303;-78
2022/01/19 15:10:56;;;;;;;22.10;12.07;;;4.50;99.90;;;;;;5013978;28;97053;-78
2022/01/19 15:13:22;;;;;;;19.27;11.52;;;4.40;99.90;;;;;;5015554;28;94340;-78
2022/01/19 15:15:47;;;;;;;19.80;12.32;;;4.40;99.90;;;;;;5016295;28;94773;-78
2022/01/19 15:18:13;;;;;;;19.70;11.90;;;4.40;99.90;;;;;;5016511;28;93752;-78
2022/01/19 15:20:40;;;;;;;19.80;12.25;;;4.40;99.90;;;;;;5014552;28;98059;-80
2022/01/19 15:23:06;;;;;;;20.15;12.63;;;4.40;99.90;;;;;;5015870;28;95068;-80
2022/01/19 15:25:36;;;;;;;20.20;12.73;;;4.50;99.90;;;;;;5013980;28;95389;-79
2022/01/19 15:28:03;;;;;;;20.38;12.30;;;4.40;99.90;;;;;;5014957;28;94801;-78
2022/01/19 15:30:32;;;;;;;19.70;12.70;;;4.40;99.90;;;;;;5015388;28;96349;-79
2022/01/19 15:32:58;;;;;;;20.23;12.75;;;4.40;99.90;;;;;;5015394;28;95094;-77
2022/01/19 15:35:24;;;;;;;23.10;13.18;;;4.40;99.90;;;;;;5014761;28;94625;-79
2022/01/19 15:37:51;;;;;;;20.38;12.20;;;4.40;99.90;;;;;;5016669;28;94526;-77
2022/01/19 15:40:18;;;;;;;20.67;12.35;;;4.40;99.90;;;;;;5015393;28;94493;-78
2022/01/19 15:42:47;;;;;;;19.42;12.10;;;4.40;99.90;;;;;;5014416;28;97131;-78
2022/01/19 15:45:15;;;;;;;18.83;12.05;;;4.50;99.90;;;;;;5016454;28;96086;-78
2022/01/19 15:47:41;;;;;;;19.70;12.60;;;4.40;99.90;;;;;;5013864;28;94466;-79
2022/01/19 15:50:10;;;;;;;20.08;11.88;;;4.40;99.90;;;;;;5014457;28;96161;-78
2022/01/19 15:52:36;;;;;;;20.77;12.57;;;4.40;99.90;;;;;;5014169;28;99319;-78
2022/01/19 15:55:03;;;;;;;20.35;11.68;;;4.40;99.90;;;;;;5014843;28;94369;-80
2022/01/19 15:57:32;;;;;;;21.83;11.82;;;4.40;99.90;;;;;;5015498;28;95258;-79
2022/01/19 15:59:58;;;;;;;19.25;11.43;;;4.50;99.90;;;;;;5013658;28;98496;-78
2022/01/19 16:02:24;;;;;;;19.95;12.15;;;4.50;99.90;;;;;;5013086;28;98010;-79
2022/01/19 16:04:50;;;;;;;20.52;12.63;;;4.40;99.90;;;;;;5017772;28;94416;-79
2022/01/19 16:07:16;;;;;;;20.48;12.10;;;4.40;99.90;;;;;;5017719;28;94065;-78
2022/01/19 16:09:41;;;;;;;22.25;11.73;;;4.40;99.90;;;;;;5018480;28;96331;-79
2022/01/19 16:12:07;;;;;;;20.73;12.77;;;4.40;99.90;;;;;;5018449;28;94534;-79
2022/01/19 16:14:33;;;;;;;21.55;13.32;;;4.50;99.90;;;;;;5018238;28;95603;-79
2022/01/19 16:16:59;;;;;;;27.00;17.38;;;4.40;99.90;;;;;;5018237;28;94391;-79
2022/01/19 16:19:25;;;;;;;30.23;18.17;;;4.50;99.90;;;;;;5016859;28;96791;-79
2022/01/19 16:21:51;;;;;;;22.15;15.35;;;4.50;99.90;;;;;;5018394;28;95297;-78
2022/01/19 16:27:04;;;;;;;21.80;12.95;;;4.40;99.90;;;;;;5019415;28;94330;-77
2022/01/19 16:29:30;;;;;;;21.05;12.57;;;4.40;99.90;;;;;;5018689;28;96670;-78
2022/01/19 16:31:56;;;;;;;19.48;12.93;;;4.40;99.90;;;;;;5016952;28;97743;-78
2022/01/19 16:34:23;;;;;;;22.55;12.45;;;4.40;99.90;;;;;;5018065;28;94540;-78
2022/01/19 16:36:49;;;;;;;21.48;12.57;;;4.50;99.90;;;;;;5016715;28;95094;-80
2022/01/19 16:39:17;;;;;;;20.77;12.23;;;4.40;99.90;;;;;;5017009;28;98263;-79
2022/01/19 16:41:44;;;;;;;20.02;12.45;;;4.40;99.90;;;;;;5019195;28;95790;-78
2022/01/19 16:44:11;;;;;;;22.77;12.32;;;4.40;99.90;;;;;;5020967;28;94408;-79
2022/01/19 16:46:40;;;;;;;20.85;12.30;;;4.40;99.90;;;;;;5017890;28;94772;-79
2022/01/19 16:49:07;;;;;;;21.90;12.50;;;4.40;99.90;;;;;;5015862;28;94272;-79
2022/01/19 16:51:35;;;;;;;21.80;12.65;;;4.40;99.90;;;;;;5017780;28;95759;-79
2022/01/19 16:54:02;;;;;;;23.95;13.00;;;4.40;99.90;;;;;;5017484;28;94446;-78
2022/01/19 16:56:28;;;;;;;21.60;12.88;;;4.40;99.90;;;;;;5017600;28;93975;-82
2022/01/19 16:58:53;;;;;;;22.58;13.30;;;4.50;99.90;;;;;;5017930;28;95553;-77
2022/01/19 17:01:20;;;;;;;22.15;12.95;;;4.40;99.90;;;;;;5017446;28;94917;-80
2022/01/19 17:03:45;;;;;;;25.55;14.32;;;4.40;99.90;;;;;;5014741;28;95477;-80
2022/01/19 17:06:11;;;;;;;23.13;14.18;;;4.40;99.90;;;;;;5017432;28;94484;-83
2022/01/19 17:08:38;;;;;;;23.30;14.73;;;4.40;99.90;;;;;;5017055;28;96859;-82
2022/01/19 17:11:06;;;;;;;23.50;14.15;;;4.40;99.90;;;;;;5016949;28;94341;-82
2022/01/19 17:16:08;;;;;;;26.88;14.82;;;4.40;99.90;;;;;;5024003;22;95822;-81
2022/01/19 17:18:34;;;;;;;24.00;13.43;;;4.40;99.90;;;;;;5000727;28;97067;-84
2022/01/19 17:20:59;;;;;;;26.42;14.63;;;4.40;99.90;;;;;;5003228;28;98433;-80
2022/01/19 17:23:25;;;;;;;41.58;23.00;;;4.40;99.90;;;;;;5004878;28;94433;-83
2022/01/19 17:25:50;;;;;;;26.05;14.95;;;4.40;99.90;;;;;;4976860;28;95194;-80
2022/01/19 17:28:16;;;;;;;27.33;16.23;;;4.40;99.90;;;;;;4962882;28;97830;-84
2022/01/19 17:30:42;;;;;;;34.47;18.13;;;4.50;99.90;;;;;;4962675;28;99058;-80
2022/01/19 17:33:07;;;;;;;31.90;18.08;;;4.50;99.90;;;;;;4967969;28;94502;-76
2022/01/19 17:35:35;;;;;;;26.02;14.93;;;4.50;99.90;;;;;;4957822;28;94337;-77
2022/01/19 17:38:01;;;;;;;35.95;19.63;;;4.50;99.90;;;;;;4973292;28;98438;-82
2022/01/19 17:40:26;;;;;;;67.95;31.40;;;4.40;99.90;;;;;;4962736;28;96809;-78
2022/01/19 17:42:54;;;;;;;33.90;19.20;;;4.40;99.90;;;;;;4965729;28;94476;-79
2022/01/19 17:45:33;;;;;;;54.35;30.25;;;4.50;99.90;;;;;;4978271;28;93813;-78
2022/01/19 17:48:06;;;;;;;45.50;24.50;;;4.50;99.90;;;;;;4979907;28;98351;-77
2022/01/19 17:50:48;;;;;;;29.95;17.83;;;4.40;99.90;;;;;;4970688;28;96739;-77
2022/01/19 17:53:15;;;;;;;32.35;19.92;;;4.40;99.90;;;;;;4961439;28;95576;-74
2022/01/19 17:55:42;;;;;;;49.78;29.27;;;4.50;99.90;;;;;;4971711;28;94645;-79
2022/01/19 17:58:09;;;;;;;25.65;15.35;;;4.60;99.90;;;;;;4972497;28;94443;-78
2022/01/19 18:00:35;;;;;;;29.25;18.20;;;4.60;99.90;;;;;;4957840;28;96828;-79
2022/01/19 18:03:03;;;;;;;34.42;19.05;;;4.60;99.90;;;;;;4957729;28;94520;-78
2022/01/19 18:05:32;;;;;;;38.47;21.67;;;4.50;99.90;;;;;;4961699;28;94576;-79